Hialeah Lakes, Florida
Current Conditions -  °F | °C
As of 11:53 PM on Monday 26 Jan 2015 (Local Time) from KOPF Reporting Station
Clear Clear  
Wind Chill: 58°   Ceiling: Unl
Heat Index: 58°   Visibility: 10mi
Dew Point: 50°   Wind: 9mph
Humidity: 75%   Direction: 300°WNW
Pressure: 30"   Gusts: NA
Location:  25.9357°N, 80.3817°W
Report Text: KOPF 270453Z AUTO 30008KT 10SM CLR 14/10 A3000 RMK AO2 SLP159 T01440100 402500111 $
Loading
Personal Weather Stations






























Interactive Weather Map New forecast layout! Learn more

10-Day Weather Forecast

Advertisements
Track Severe Weather on mobile